Time;durP1;ratioP1;P1;durP2;ratioP2;P2;SDS_P1;SDS_P2;PMS_P1;PMS_P2;Temp;Humidity;BMP_temperature;BMP_pressure;BME280_temperature;BME280_humidity;BME280_pressure;Samples;Min_cycle;Max_cycle;Signal;HPM_P1;HPM_P2
2021/06/13 00:01:18;;;;;;;;;;;;;;;12.88;94.86;100200.06;1654467;87;20484;-82
2021/06/13 00:03:44;;;;;;;;;;;;;;;12.86;94.90;100201.14;1654103;86;20162;-80
2021/06/13 00:06:10;;;;;;;;;;;;;;;12.84;94.95;100193.34;1654236;87;20131;-81
2021/06/13 00:08:35;;;;;;;;;;;;;;;12.84;94.96;100207.91;1652313;87;20450;-80
2021/06/13 00:11:01;;;;;;;;;;;;;;;12.83;95.05;100207.56;1648245;87;20810;-80
2021/06/13 00:13:27;;;;;;;;;;;;;;;12.83;95.20;100205.38;1654526;86;20109;-80
2021/06/13 00:15:53;;;;;;;;;;;;;;;12.84;95.38;100209.72;1654347;86;20190;-80
2021/06/13 00:18:20;;;;;;;;;;;;;;;12.83;95.28;100214.19;1653981;86;20163;-80
2021/06/13 00:20:47;;;;;;;;;;;;;;;12.82;95.22;100217.78;1653894;87;20138;-80
2021/06/13 00:23:13;;;;;;;;;;;;;;;12.81;95.34;100216.11;1653783;87;20157;-80
2021/06/13 00:25:39;;;;;;;;;;;;;;;12.80;95.30;100213.57;1654571;87;20165;-81
2021/06/13 00:28:05;;;;;;;;;;;;;;;12.78;95.31;100218.17;1654458;87;20105;-80
2021/06/13 00:30:31;;;;;;;;;;;;;;;12.80;95.53;100220.19;1654459;87;20093;-80
2021/06/13 00:32:56;;;;;;;;;;;;;;;12.80;95.62;100220.19;1654355;87;20135;-80
2021/06/13 00:35:23;;;;;;;;;;;;;;;12.79;95.62;100219.84;1654228;86;20175;-80
2021/06/13 00:37:50;;;;;;;;;;;;;;;12.80;95.77;100219.73;1654107;87;20473;-79
2021/06/13 00:40:18;;;;;;;;;;;;;;;12.80;95.71;100223.70;1654118;86;20199;-79
2021/06/13 00:42:45;;;;;;;;;;;;;;;12.81;95.70;100225.87;1644073;87;20129;-79
2021/06/13 00:45:11;;;;;;;;;;;;;;;12.81;95.76;100224.54;1654553;86;20117;-81
2021/06/13 00:47:38;;;;;;;;;;;;;;;12.80;95.90;100227.67;1654403;87;20117;-79
2021/06/13 00:50:07;;;;;;;;;;;;;;;12.78;95.65;100226.95;1654474;86;20102;-79
2021/06/13 00:52:33;;;;;;;;;;;;;;;12.76;95.58;100234.66;1654017;86;20121;-79
2021/06/13 00:54:59;;;;;;;;;;;;;;;12.75;95.61;100235.64;1654664;87;20149;-79
2021/06/13 00:57:25;;;;;;;;;;;;;;;12.72;95.60;100236.73;1654394;86;20449;-80
2021/06/13 00:59:50;;;;;;;;;;;;;;;12.72;95.69;100243.34;1654295;86;20157;-79
2021/06/13 01:02:16;;;;;;;;;;;;;;;12.70;95.67;100243.11;1654276;87;20106;-80
2021/06/13 01:04:42;;;;;;;;;;;;;;;12.68;95.61;100240.11;1654107;87;20404;-79
2021/06/13 01:07:14;;;;;;;;;;;;;;;12.67;95.59;100249.03;1654491;87;20157;-79
2021/06/13 01:09:43;;;;;;;;;;;;;;;12.65;95.60;100240.36;1649749;87;20130;-80
2021/06/13 01:12:12;;;;;;;;;;;;;;;12.64;95.61;100236.05;1653542;86;20125;-80
2021/06/13 01:14:48;;;;;;;;;;;;;;;12.62;95.73;100243.27;1653558;87;20549;-79
2021/06/13 01:17:23;;;;;;;;;;;;;;;12.60;95.58;100240.37;1631517;87;20107;-80
2021/06/13 01:20:05;;;;;;;;;;;;;;;12.58;95.67;100240.52;1654845;86;20448;-79
2021/06/13 01:22:49;;;;;;;;;;;;;;;12.56;95.61;100238.47;1654379;87;20161;-80
2021/06/13 01:25:34;;;;;;;;;;;;;;;12.54;95.53;100243.07;1654620;86;20117;-78
2021/06/13 01:28:13;;;;;;;;;;;;;;;12.53;95.61;100244.02;1654415;86;20144;-79
2021/06/13 01:30:39;;;;;;;;;;;;;;;12.52;95.63;100241.02;1654609;86;20145;-80
2021/06/13 01:33:08;;;;;;;;;;;;;;;12.50;95.36;100237.65;1654368;86;20496;-79
2021/06/13 01:35:35;;;;;;;;;;;;;;;12.47;95.44;100235.28;1654630;86;20113;-80
2021/06/13 01:38:02;;;;;;;;;;;;;;;12.45;95.52;100237.20;1654418;87;20197;-79
2021/06/13 01:40:31;;;;;;;;;;;;;;;12.44;95.50;100239.50;1661460;86;20141;-80
2021/06/13 01:42:58;;;;;;;;;;;;;;;12.42;95.52;100234.80;1655494;86;20163;-80
2021/06/13 01:45:32;;;;;;;;;;;;;;;12.40;95.51;100233.63;1631668;87;20186;-80
2021/06/13 01:47:58;;;;;;;;;;;;;;;12.37;95.32;100231.67;1654148;87;20277;-79
2021/06/13 01:50:27;;;;;;;;;;;;;;;12.34;95.24;100229.28;1654140;86;20181;-79
2021/06/13 01:52:53;;;;;;;;;;;;;;;12.30;95.16;100236.63;1654291;87;20147;-79
2021/06/13 01:55:20;;;;;;;;;;;;;;;12.27;95.17;100232.07;1654240;86;20509;-79
2021/06/13 01:57:47;;;;;;;;;;;;;;;12.25;95.43;100231.38;1652075;87;20181;-79
2021/06/13 02:00:16;;;;;;;;;;;;;;;12.25;95.31;100234.02;1654551;86;20101;-79
2021/06/13 02:02:44;;;;;;;;;;;;;;;12.20;95.12;100237.02;1654302;87;20141;-79
2021/06/13 02:05:11;;;;;;;;;;;;;;;12.16;94.90;100239.56;1654456;86;20137;-81
2021/06/13 02:07:38;;;;;;;;;;;;;;;12.12;95.06;100243.42;1653867;86;20209;-80
2021/06/13 02:10:07;;;;;;;;;;;;;;;12.10;94.92;100246.66;1653915;86;20126;-79
2021/06/13 02:12:38;;;;;;;;;;;;;;;12.06;94.91;100244.75;1658441;86;20202;-79
2021/06/13 02:15:05;;;;;;;;;;;;;;;12.04;94.95;100252.44;1654351;87;20162;-79
2021/06/13 02:17:33;;;;;;;;;;;;;;;12.00;94.81;100247.04;1654188;86;20166;-79
2021/06/13 02:19:58;;;;;;;;;;;;;;;11.96;94.90;100253.89;1653798;87;20149;-80
2021/06/13 02:22:25;;;;;;;;;;;;;;;11.93;94.42;100253.30;1654619;87;20165;-79
2021/06/13 02:24:51;;;;;;;;;;;;;;;11.88;94.45;100263.42;1654602;86;20158;-78
2021/06/13 02:27:20;;;;;;;;;;;;;;;11.84;94.36;100261.47;1654222;87;20262;-79
2021/06/13 02:29:46;;;;;;;;;;;;;;;11.81;94.54;100267.45;1654484;84;20113;-79
2021/06/13 02:32:13;;;;;;;;;;;;;;;11.77;94.44;100273.94;1654242;86;20396;-78
2021/06/13 02:34:39;;;;;;;;;;;;;;;11.72;94.19;100277.80;1654517;87;20148;-78
2021/06/13 02:37:07;;;;;;;;;;;;;;;11.69;94.27;100282.00;1654395;87;20157;-79
2021/06/13 02:39:33;;;;;;;;;;;;;;;11.65;94.32;100285.02;1654468;86;20639;-80
2021/06/13 02:41:59;;;;;;;;;;;;;;;11.62;94.08;100290.05;1654112;87;20435;-80
2021/06/13 02:44:26;;;;;;;;;;;;;;;11.60;94.17;100293.28;1654276;86;20154;-79
2021/06/13 02:46:52;;;;;;;;;;;;;;;11.56;94.26;100291.00;1654065;86;20627;-78
2021/06/13 02:49:18;;;;;;;;;;;;;;;11.54;94.34;100299.03;1654494;86;20151;-80
2021/06/13 02:51:53;;;;;;;;;;;;;;;11.51;94.33;100300.59;1654093;87;20234;-79
2021/06/13 02:54:19;;;;;;;;;;;;;;;11.48;94.38;100301.69;1654416;87;20168;-79
2021/06/13 02:56:53;;;;;;;;;;;;;;;11.47;94.22;100307.08;1653961;87;20131;-79
2021/06/13 02:59:38;;;;;;;;;;;;;;;11.44;94.43;100306.82;1654090;87;20135;-81
2021/06/13 03:02:07;;;;;;;;;;;;;;;11.41;94.41;100309.70;1648942;87;20157;-82
2021/06/13 03:04:33;;;;;;;;;;;;;;;11.39;94.27;100314.27;1654351;87;20462;-80
2021/06/13 03:06:59;;;;;;;;;;;;;;;11.37;94.39;100317.50;1654022;87;20166;-81
2021/06/13 03:09:27;;;;;;;;;;;;;;;11.37;94.45;100324.11;1654280;87;20460;-81
2021/06/13 03:11:54;;;;;;;;;;;;;;;11.37;94.54;100317.98;1653994;86;20156;-80
2021/06/13 03:14:20;;;;;;;;;;;;;;;11.37;94.66;100324.59;1640982;87;20145;-82
2021/06/13 03:16:47;;;;;;;;;;;;;;;11.36;94.45;100325.08;1642858;87;20148;-82
2021/06/13 03:19:13;;;;;;;;;;;;;;;11.37;94.83;100325.42;1654298;87;20163;-82
2021/06/13 03:21:39;;;;;;;;;;;;;;;11.38;94.90;100331.55;1639986;87;20140;-82
2021/06/13 03:24:06;;;;;;;;;;;;;;;11.39;94.69;100335.41;1641091;87;20144;-81
2021/06/13 03:26:31;;;;;;;;;;;;;;;11.39;94.66;100335.41;1654262;87;20128;-80
2021/06/13 03:28:58;;;;;;;;;;;;;;;11.41;94.75;100339.24;1654447;87;20132;-80
2021/06/13 03:31:25;;;;;;;;;;;;;;;11.41;94.87;100336.60;1654402;87;20423;-82
2021/06/13 03:33:53;;;;;;;;;;;;;;;11.42;94.73;100347.55;1654079;87;20144;-81
2021/06/13 03:36:19;;;;;;;;;;;;;;;11.43;94.64;100347.91;1654143;86;20158;-81
2021/06/13 03:38:46;;;;;;;;;;;;;;;11.43;94.66;100342.14;1653715;86;20435;-82
2021/06/13 03:41:14;;;;;;;;;;;;;;;11.44;94.35;100353.55;1654195;86;20151;-80
2021/06/13 03:43:41;;;;;;;;;;;;;;;11.43;94.54;100357.16;1654038;87;20491;-83
2021/06/13 03:46:07;;;;;;;;;;;;;;;11.39;94.04;100353.07;1633695;87;20143;-79
2021/06/13 03:48:34;;;;;;;;;;;;;;;11.39;94.06;100350.42;1631125;87;20135;-82
2021/06/13 03:51:00;;;;;;;;;;;;;;;11.39;94.11;100359.19;1654343;87;20194;-81
2021/06/13 03:53:25;;;;;;;;;;;;;;;11.39;94.08;100361.83;1654348;87;20197;-80
2021/06/13 03:55:53;;;;;;;;;;;;;;;11.39;94.04;100375.05;1654406;86;20137;-82
2021/06/13 03:58:24;;;;;;;;;;;;;;;11.38;94.16;100368.05;1654285;86;20174;-80
2021/06/13 04:00:51;;;;;;;;;;;;;;;11.39;94.24;100367.59;1654532;86;20140;-81
2021/06/13 04:03:19;;;;;;;;;;;;;;;11.38;93.81;100369.86;1632258;87;20442;-82
2021/06/13 04:05:45;;;;;;;;;;;;;;;11.37;93.83;100376.95;1639125;87;20169;-80
2021/06/13 04:08:13;;;;;;;;;;;;;;;11.36;93.73;100387.16;1653738;86;20132;-82
2021/06/13 04:10:41;;;;;;;;;;;;;;;11.37;93.74;100382.71;1653815;86;20199;-83
2021/06/13 04:13:07;;;;;;;;;;;;;;;11.38;93.79;100387.03;1654012;86;20134;-82
2021/06/13 04:15:33;;;;;;;;;;;;;;;11.38;93.40;100389.67;1654141;86;20139;-82
2021/06/13 04:17:59;;;;;;;;;;;;;;;11.36;93.21;100385.84;1654111;86;20477;-84
2021/06/13 04:20:25;;;;;;;;;;;;;;;11.36;93.07;100390.28;1654350;86;20161;-79
2021/06/13 04:22:51;;;;;;;;;;;;;;;11.35;93.32;100401.78;1654263;86;20165;-84
2021/06/13 04:25:19;;;;;;;;;;;;;;;11.35;93.25;100393.41;1654843;86;20158;-81
2021/06/13 04:27:46;;;;;;;;;;;;;;;11.36;93.45;100401.69;1628704;87;20105;-83
2021/06/13 04:30:13;;;;;;;;;;;;;;;11.36;93.34;100396.41;1653563;87;20136;-83
2021/06/13 04:32:38;;;;;;;;;;;;;;;11.37;92.91;100403.84;1654270;87;20121;-81
2021/06/13 04:35:05;;;;;;;;;;;;;;;11.37;93.06;100409.13;1654422;87;20113;-83
2021/06/13 04:37:31;;;;;;;;;;;;;;;11.37;93.07;100408.65;1652485;86;20558;-82
2021/06/13 04:39:57;;;;;;;;;;;;;;;11.38;92.58;100413.45;1654585;86;20137;-82
2021/06/13 04:42:22;;;;;;;;;;;;;;;11.39;92.48;100408.55;1654350;87;20132;-83
2021/06/13 04:44:48;;;;;;;;;;;;;;;11.41;92.35;100405.30;1654640;87;20153;-82
2021/06/13 04:47:15;;;;;;;;;;;;;;;11.42;92.47;100412.28;1654327;87;20132;-82
2021/06/13 04:49:42;;;;;;;;;;;;;;;11.44;92.20;100415.64;1654295;87;20149;-82
2021/06/13 04:52:12;;;;;;;;;;;;;;;11.44;91.88;100413.83;1654262;87;20209;-82
2021/06/13 04:54:56;;;;;;;;;;;;;;;11.43;91.94;100420.56;1654599;85;20137;-81
2021/06/13 04:57:32;;;;;;;;;;;;;;;11.44;91.87;100423.08;1654150;87;20454;-82
2021/06/13 04:59:58;;;;;;;;;;;;;;;11.46;91.49;100433.55;1654472;86;20137;-83
2021/06/13 05:02:23;;;;;;;;;;;;;;;11.46;91.54;100435.71;1654310;86;20125;-81
2021/06/13 05:04:49;;;;;;;;;;;;;;;11.49;91.48;100439.94;1654630;87;20120;-82
2021/06/13 05:07:15;;;;;;;;;;;;;;;11.51;91.81;100435.36;1653992;87;20143;-80
2021/06/13 05:09:44;;;;;;;;;;;;;;;11.53;91.71;100438.73;1653581;87;20169;-82
2021/06/13 05:12:11;;;;;;;;;;;;;;;11.56;92.21;100441.64;1653972;86;20505;-82
2021/06/13 05:14:36;;;;;;;;;;;;;;;11.60;92.00;100442.60;1654739;86;20376;-83
2021/06/13 05:17:02;;;;;;;;;;;;;;;11.64;91.95;100442.73;1654365;87;20132;-82
2021/06/13 05:19:28;;;;;;;;;;;;;;;11.68;92.11;100440.70;1654306;86;20210;-82
2021/06/13 05:21:54;;;;;;;;;;;;;;;11.72;91.94;100446.14;1654280;86;20563;-82
2021/06/13 05:24:20;;;;;;;;;;;;;;;11.77;91.86;100451.91;1654390;86;20112;-84
2021/06/13 05:26:45;;;;;;;;;;;;;;;11.80;91.73;100450.35;1654273;87;20151;-84
2021/06/13 05:29:11;;;;;;;;;;;;;;;11.83;91.42;100446.64;1640998;87;20104;-82
2021/06/13 05:31:37;;;;;;;;;;;;;;;11.85;91.53;100453.53;1644874;87;20089;-84
2021/06/13 05:34:03;;;;;;;;;;;;;;;11.88;91.30;100451.14;1651432;86;20199;-82
2021/06/13 05:36:29;;;;;;;;;;;;;;;11.91;90.07;100456.17;1654087;86;20174;-80
2021/06/13 05:38:54;;;;;;;;;;;;;;;11.92;90.27;100444.66;1654290;86;20480;-82
2021/06/13 05:41:21;;;;;;;;;;;;;;;11.93;90.58;100454.27;1654703;86;20158;-83
2021/06/13 05:43:47;;;;;;;;;;;;;;;11.95;89.91;100453.19;1654136;86;20171;-81
2021/06/13 05:46:13;;;;;;;;;;;;;;;11.99;90.59;100452.48;1653744;87;20443;-81
2021/06/13 05:48:39;;;;;;;;;;;;;;;12.04;90.11;100454.76;1640179;87;20183;-83
2021/06/13 05:51:05;;;;;;;;;;;;;;;12.08;90.26;100458.88;1654195;87;20222;-82
2021/06/13 05:53:31;;;;;;;;;;;;;;;12.13;90.62;100451.41;1654144;87;20154;-82
2021/06/13 05:55:57;;;;;;;;;;;;;;;12.16;90.30;100457.30;1652958;86;20140;-80
2021/06/13 05:58:23;;;;;;;;;;;;;;;12.17;89.99;100459.02;1654146;87;20144;-81
2021/06/13 06:00:49;;;;;;;;;;;;;;;12.19;90.15;100461.04;1654629;85;20125;-81
2021/06/13 06:03:15;;;;;;;;;;;;;;;12.22;90.32;100465.74;1654235;87;20484;-81
2021/06/13 06:05:41;;;;;;;;;;;;;;;12.26;90.50;100471.98;1653776;87;20101;-83
2021/06/13 06:08:07;;;;;;;;;;;;;;;12.28;90.09;100475.38;1653553;86;20105;-86
2021/06/13 06:10:34;;;;;;;;;;;;;;;12.31;90.28;100481.75;1653298;86;20408;-85
2021/06/13 06:13:03;;;;;;;;;;;;;;;12.32;90.09;100483.91;1652859;86;20487;-86
2021/06/13 06:15:33;;;;;;;;;;;;;;;12.33;89.45;100493.52;1653313;86;20164;-87
2021/06/13 06:17:59;;;;;;;;;;;;;;;12.34;89.75;100497.39;1653282;87;20242;-86
2021/06/13 06:20:26;;;;;;;;;;;;;;;12.36;89.98;100498.59;1653969;87;20144;-84
2021/06/13 06:22:52;;;;;;;;;;;;;;;12.41;89.94;100504.38;1652289;86;20113;-84
2021/06/13 06:25:19;;;;;;;;;;;;;;;12.43;89.51;100501.95;1654486;87;20105;-85
2021/06/13 06:27:45;;;;;;;;;;;;;;;12.46;89.08;100497.39;1654287;87;20440;-83
2021/06/13 06:30:13;;;;;;;;;;;;;;;12.47;89.34;100503.03;1654694;87;20103;-84
2021/06/13 06:32:39;;;;;;;;;;;;;;;12.51;89.22;100503.19;1654421;87;20173;-83
2021/06/13 06:35:07;;;;;;;;;;;;;;;12.53;88.80;100503.89;1655041;86;20200;-85
2021/06/13 06:37:35;;;;;;;;;;;;;;;12.56;88.71;100506.30;1629558;86;20187;-83
2021/06/13 06:40:01;;;;;;;;;;;;;;;12.58;88.52;100510.52;1626587;88;20100;-84
2021/06/13 06:42:27;;;;;;;;;;;;;;;12.59;88.18;100503.41;1626407;88;20104;-84
2021/06/13 06:44:53;;;;;;;;;;;;;;;12.60;87.91;100511.70;1638195;87;20102;-87
2021/06/13 06:47:19;;;;;;;;;;;;;;;12.58;85.95;100513.16;1653016;86;20153;-85
2021/06/13 06:49:44;;;;;;;;;;;;;;;12.52;86.15;100518.09;1653092;86;20118;-82
2021/06/13 06:52:11;;;;;;;;;;;;;;;12.52;86.59;100527.36;1652956;86;20141;-82
2021/06/13 06:54:37;;;;;;;;;;;;;;;12.55;87.28;100525.80;1653130;86;20410;-84
2021/06/13 06:57:04;;;;;;;;;;;;;;;12.64;86.60;100522.44;1636783;87;20144;-83
2021/06/13 06:59:29;;;;;;;;;;;;;;;12.71;85.86;100514.86;1653167;87;20148;-83
2021/06/13 07:01:55;;;;;;;;;;;;;;;12.77;85.97;100524.98;1653682;86;20136;-85
2021/06/13 07:04:22;;;;;;;;;;;;;;;12.83;86.20;100528.44;1654514;87;20137;-83
2021/06/13 07:06:48;;;;;;;;;;;;;;;12.88;84.53;100521.82;1654567;86;20209;-83
2021/06/13 07:09:13;;;;;;;;;;;;;;;12.90;84.85;100523.88;1662794;86;20105;-82
2021/06/13 07:11:39;;;;;;;;;;;;;;;12.95;84.32;100540.72;1647198;87;20424;-82
2021/06/13 07:14:05;;;;;;;;;;;;;;;12.96;82.50;100539.74;1653335;87;20170;-85
2021/06/13 07:16:31;;;;;;;;;;;;;;;12.96;84.24;100532.28;1654248;86;20170;-81
2021/06/13 07:18:56;;;;;;;;;;;;;;;12.96;83.70;100541.07;1654415;87;20512;-82
2021/06/13 07:21:22;;;;;;;;;;;;;;;12.99;83.23;100535.53;1654229;86;20441;-84
2021/06/13 07:23:48;;;;;;;;;;;;;;;13.01;83.94;100538.08;1654224;87;20139;-84
2021/06/13 07:26:13;;;;;;;;;;;;;;;13.04;83.27;100544.45;1654366;87;20231;-81
2021/06/13 07:28:39;;;;;;;;;;;;;;;13.04;82.02;100556.38;1654308;86;20181;-82
2021/06/13 07:31:05;;;;;;;;;;;;;;;13.04;83.09;100548.43;1654257;87;20127;-84
2021/06/13 07:33:31;;;;;;;;;;;;;;;13.06;83.41;100553.10;1654161;85;20136;-83
2021/06/13 07:35:57;;;;;;;;;;;;;;;13.10;83.07;100559.37;1653639;85;20216;-82
2021/06/13 07:38:25;;;;;;;;;;;;;;;13.11;81.76;100559.73;1660502;86;20113;-82
2021/06/13 07:40:52;;;;;;;;;;;;;;;13.12;82.19;100565.38;1654312;87;20140;-83
2021/06/13 07:43:18;;;;;;;;;;;;;;;13.11;82.66;100565.52;1654074;87;20140;-81
2021/06/13 07:45:44;;;;;;;;;;;;;;;13.14;83.13;100563.47;1654435;86;20093;-83
2021/06/13 07:48:11;;;;;;;;;;;;;;;13.23;81.97;100560.58;1653914;86;20128;-84
2021/06/13 07:50:37;;;;;;;;;;;;;;;13.32;81.65;100570.45;1653081;86;20427;-83
2021/06/13 07:53:04;;;;;;;;;;;;;;;13.35;81.03;100573.34;1651218;86;20336;-85
2021/06/13 07:55:31;;;;;;;;;;;;;;;13.38;82.01;100573.94;1651480;86;20422;-86
2021/06/13 07:57:57;;;;;;;;;;;;;;;13.43;81.65;100574.91;1651370;86;20160;-82
2021/06/13 08:00:23;;;;;;;;;;;;;;;13.46;81.21;100578.64;1651237;87;20164;-84
2021/06/13 08:02:51;;;;;;;;;;;;;;;13.50;80.89;100577.91;1651474;86;20136;-82
2021/06/13 08:05:25;;;;;;;;;;;;;;;13.53;81.07;100576.33;1651078;86;20402;-83
2021/06/13 08:07:44;;;;;;;;;;;;;;;13.57;80.43;100580.41;1650700;86;20430;-84
2021/06/13 08:10:11;;;;;;;;;;;;;;;13.65;81.28;100583.76;1653474;87;20158;-82
2021/06/13 08:12:40;;;;;;;;;;;;;;;13.76;80.02;100591.20;1653269;87;20158;-82
2021/06/13 08:15:07;;;;;;;;;;;;;;;13.81;79.48;100582.38;1653626;87;20126;-87
2021/06/13 08:17:33;;;;;;;;;;;;;;;13.83;78.28;100594.20;1657024;85;20161;-83
2021/06/13 08:19:58;;;;;;;;;;;;;;;13.82;78.89;100595.18;1667701;85;20196;-82
2021/06/13 08:22:24;;;;;;;;;;;;;;;13.85;79.53;100592.25;1667136;86;20301;-81
2021/06/13 08:24:50;;;;;;;;;;;;;;;14.01;79.39;100597.97;1667627;85;20169;-83
2021/06/13 08:27:16;;;;;;;;;;;;;;;14.12;76.51;100595.78;1667675;85;20490;-85
2021/06/13 08:29:42;;;;;;;;;;;;;;;14.14;76.51;100600.45;1667160;86;20164;-84
2021/06/13 08:32:09;;;;;;;;;;;;;;;14.13;78.28;100605.91;1667632;85;20193;-81
2021/06/13 08:34:34;;;;;;;;;;;;;;;14.15;77.54;100614.11;1667419;86;20165;-82
2021/06/13 08:37:00;;;;;;;;;;;;;;;14.22;78.85;100611.29;1662343;85;20318;-82
2021/06/13 08:39:26;;;;;;;;;;;;;;;14.31;78.15;100611.86;1653726;86;20467;-82
2021/06/13 08:41:52;;;;;;;;;;;;;;;14.41;78.92;100601.77;1653087;87;20187;-85
2021/06/13 08:44:18;;;;;;;;;;;;;;;14.50;76.70;100603.20;1653611;86;20164;-82
2021/06/13 08:46:44;;;;;;;;;;;;;;;14.57;76.68;100607.98;1653371;87;20573;-84
2021/06/13 08:49:10;;;;;;;;;;;;;;;14.58;76.60;100607.88;1653618;87;20171;-84
2021/06/13 08:51:37;;;;;;;;;;;;;;;14.58;74.52;100606.55;1653327;87;20478;-85
2021/06/13 08:54:04;;;;;;;;;;;;;;;14.56;75.34;100613.79;1653431;86;20168;-86
2021/06/13 08:56:30;;;;;;;;;;;;;;;14.58;74.72;100625.59;1653661;87;20174;-83
2021/06/13 08:58:56;;;;;;;;;;;;;;;14.47;74.70;100624.66;1653236;87;20171;-84
2021/06/13 09:01:22;;;;;;;;;;;;;;;14.37;74.55;100628.22;1653645;86;20158;-83
2021/06/13 09:03:48;;;;;;;;;;;;;;;14.29;75.92;100635.52;1653318;87;20182;-84
2021/06/13 09:06:14;;;;;;;;;;;;;;;14.24;75.49;100641.67;1653439;87;20472;-86
2021/06/13 09:08:42;;;;;;;;;;;;;;;14.18;76.16;100644.83;1652962;86;20136;-89
2021/06/13 09:11:11;;;;;;;;;;;;;;;14.16;75.71;100643.64;1652013;86;20122;-83
2021/06/13 09:13:40;;;;;;;;;;;;;;;14.15;74.64;100643.30;1650493;87;20450;-81
2021/06/13 09:16:06;;;;;;;;;;;;;;;14.15;74.57;100643.75;1652239;86;20129;-82
2021/06/13 09:18:44;;;;;;;;;;;;;;;14.17;74.95;100641.83;1652610;86;20094;-84
2021/06/13 09:21:16;;;;;;;;;;;;;;;14.22;74.64;100650.27;1652215;87;20160;-84
2021/06/13 09:23:42;;;;;;;;;;;;;;;14.28;75.58;100648.41;1650094;87;20466;-86
2021/06/13 09:26:10;;;;;;;;;;;;;;;14.33;74.79;100646.71;1652305;87;20094;-82
2021/06/13 09:28:39;;;;;;;;;;;;;;;14.39;75.27;100656.34;1650384;87;20136;-83
2021/06/13 09:31:06;;;;;;;;;;;;;;;14.43;74.88;100656.42;1649660;87;20161;-80
2021/06/13 09:33:36;;;;;;;;;;;;;;;14.46;73.96;100652.69;1627553;87;20117;-83
2021/06/13 09:36:05;;;;;;;;;;;;;;;14.51;75.08;100654.48;1650856;86;20161;-82
2021/06/13 09:38:45;;;;;;;;;;;;;;;14.61;74.12;100649.23;1650865;86;20157;-84
2021/06/13 09:41:19;;;;;;;;;;;;;;;14.74;73.41;100643.24;1650704;87;20522;-84
2021/06/13 09:43:51;;;;;;;;;;;;;;;14.86;71.92;100650.66;1650829;86;20412;-82
2021/06/13 09:46:20;;;;;;;;;;;;;;;14.94;72.11;100663.66;1643063;87;20352;-84
2021/06/13 09:48:48;;;;;;;;;;;;;;;14.96;70.77;100656.38;1650975;86;20145;-81
2021/06/13 09:51:18;;;;;;;;;;;;;;;14.94;71.36;100661.50;1650316;87;20109;-83
2021/06/13 09:53:50;;;;;;;;;;;;;;;14.92;71.84;100664.27;1650998;86;20161;-83
2021/06/13 09:56:22;;;;;;;;;;;;;;;14.92;72.32;100666.92;1650138;87;20680;-83
2021/06/13 09:58:54;;;;;;;;;;;;;;;14.95;71.63;100666.67;1650556;86;20133;-83
2021/06/13 10:01:22;;;;;;;;;;;;;;;14.95;70.00;100669.33;1651122;86;20176;-82
2021/06/13 10:03:48;;;;;;;;;;;;;;;14.97;70.87;100668.72;1651559;86;20519;-82
2021/06/13 10:06:21;;;;;;;;;;;;;;;15.05;71.00;100680.50;1653977;87;20287;-85
2021/06/13 10:08:45;;;;;;;;;;;;;;;15.10;70.73;100675.61;1650771;85;20444;-84
2021/06/13 10:11:11;;;;;;;;;;;;;;;15.15;70.25;100677.41;1652355;86;20204;-84
2021/06/13 10:13:46;;;;;;;;;;;;;;;15.17;70.91;100680.78;1652483;86;20184;-86
2021/06/13 10:16:33;;;;;;;;;;;;;;;15.29;71.23;100686.34;1652143;86;20150;-83
2021/06/13 10:19:04;;;;;;;;;;;;;;;15.47;68.08;100691.89;1650638;85;20478;-85
2021/06/13 10:21:35;;;;;;;;;;;;;;;15.53;68.48;100695.36;1653522;86;20129;-82
2021/06/13 10:24:06;;;;;;;;;;;;;;;15.49;68.80;100692.09;1653621;87;20231;-84
2021/06/13 10:26:33;;;;;;;;;;;;;;;15.45;69.24;100701.32;1653275;86;20176;-82
2021/06/13 10:28:59;;;;;;;;;;;;;;;15.39;67.84;100701.85;1653349;86;20449;-84
2021/06/13 10:31:24;;;;;;;;;;;;;;;15.34;68.71;100694.78;1653685;87;20157;-84
2021/06/13 10:33:50;;;;;;;;;;;;;;;15.31;68.05;100693.71;1653446;87;20141;-85
2021/06/13 10:36:16;;;;;;;;;;;;;;;15.32;68.42;100691.89;1654275;85;20123;-83
2021/06/13 10:38:42;;;;;;;;;;;;;;;15.33;68.71;100693.08;1659550;85;20430;-83
2021/06/13 10:41:08;;;;;;;;;;;;;;;15.37;68.12;100704.31;1667630;85;20168;-85
2021/06/13 10:43:34;;;;;;;;;;;;;;;15.34;68.21;100696.11;1666866;86;20156;-84
2021/06/13 10:46:10;;;;;;;;;;;;;;;15.33;67.68;100701.05;1667369;86;20188;-84
2021/06/13 10:48:41;;;;;;;;;;;;;;;15.34;68.12;100699.26;1666491;86;20443;-84
2021/06/13 10:51:41;;;;;;;;;;;;;;;15.38;68.20;100702.83;1655355;85;20415;-83
2021/06/13 10:54:26;;;;;;;;;;;;;;;15.42;67.35;100702.08;1650436;87;20136;-83
2021/06/13 10:56:55;;;;;;;;;;;;;;;15.44;67.84;100705.45;1650852;87;20133;-85
2021/06/13 10:59:21;;;;;;;;;;;;;;;15.41;65.09;100717.69;1612976;87;20141;-85
2021/06/13 11:01:56;;;;;;;;;;;;;;;15.32;65.46;100723.80;1650832;86;20136;-85
2021/06/13 11:04:43;;;;;;;;;;;;;;;15.23;66.30;100716.11;1647644;87;20597;-83
2021/06/13 11:07:10;;;;;;;;;;;;;;;15.16;65.77;100718.95;1652415;85;20144;-85
2021/06/13 11:10:07;;;;;;;;;;;;;;;15.08;66.92;100724.09;1627046;87;20139;-88
2021/06/13 11:12:58;;;;;;;;;;;;;;;15.03;67.00;100721.80;1633036;85;20425;-84
2021/06/13 11:15:32;;;;;;;;;;;;;;;15.02;67.24;100730.77;1653342;86;20142;-84
2021/06/13 11:18:10;;;;;;;;;;;;;;;15.01;67.84;100726.43;1653692;86;20137;-85
2021/06/13 11:23:15;;;;;;;;;;;;;;;15.07;68.12;100738.33;1650467;86;20478;-84
2021/06/13 11:25:41;;;;;;;;;;;;;;;15.13;67.76;100731.17;1640369;85;20474;-81
2021/06/13 11:28:18;;;;;;;;;;;;;;;15.18;67.25;100728.48;1651628;86;20166;-84
2021/06/13 11:30:50;;;;;;;;;;;;;;;15.23;67.88;100726.28;1652882;85;20144;-83
2021/06/13 11:33:39;;;;;;;;;;;;;;;15.28;66.76;100725.88;1654762;86;20269;-90
2021/06/13 11:36:23;;;;;;;;;;;;;;;15.32;66.39;100729.11;1661875;85;20144;-84
2021/06/13 11:38:55;;;;;;;;;;;;;;;15.27;66.04;100725.99;1641346;86;20138;-85
2021/06/13 11:41:30;;;;;;;;;;;;;;;15.19;65.89;100731.98;1654868;86;20165;-83
2021/06/13 11:43:57;;;;;;;;;;;;;;;15.08;66.09;100741.37;1631481;87;20181;-80
2021/06/13 11:46:37;;;;;;;;;;;;;;;14.97;66.60;100741.80;1625035;88;20131;-88
2021/06/13 11:49:05;;;;;;;;;;;;;;;14.90;65.59;100743.25;1643652;85;20168;-81
2021/06/13 11:51:31;;;;;;;;;;;;;;;14.83;65.89;100751.87;1651893;86;20136;-84
2021/06/13 11:54:04;;;;;;;;;;;;;;;14.74;64.76;100742.86;1644625;86;20126;-82
2021/06/13 11:56:36;;;;;;;;;;;;;;;14.68;66.29;100748.21;1629480;87;20478;-85
2021/06/13 11:59:14;;;;;;;;;;;;;;;14.62;66.15;100736.77;1641592;87;20395;-84
2021/06/13 12:01:44;;;;;;;;;;;;;;;14.58;64.90;100744.64;1651164;87;20148;-85
2021/06/13 12:04:15;;;;;;;;;;;;;;;14.54;66.22;100749.36;1644641;86;20416;-83
2021/06/13 12:06:42;;;;;;;;;;;;;;;14.53;66.73;100750.31;1631810;86;20131;-84
2021/06/13 12:09:11;;;;;;;;;;;;;;;14.51;65.98;100750.07;1657341;85;20136;-86
2021/06/13 12:11:50;;;;;;;;;;;;;;;14.49;66.56;100755.48;1652690;85;20105;-86
2021/06/13 12:14:28;;;;;;;;;;;;;;;14.51;66.64;100760.70;1652857;85;20128;-86
2021/06/13 12:17:00;;;;;;;;;;;;;;;14.53;66.88;100756.95;1638825;87;20447;-87
2021/06/13 12:19:50;;;;;;;;;;;;;;;14.57;66.50;100765.99;1651617;86;20136;-87
2021/06/13 12:27:51;;;;;;;;;;;;;;;14.66;66.53;100760.77;1652440;85;20145;-84
2021/06/13 12:30:22;;;;;;;;;;;;;;;14.66;65.57;100762.09;1651329;87;20161;-84
2021/06/13 12:33:02;;;;;;;;;;;;;;;14.63;66.08;100762.34;1662375;85;20145;-85
2021/06/13 12:35:33;;;;;;;;;;;;;;;14.61;66.32;100772.73;1628404;86;20147;-86
2021/06/13 12:38:10;;;;;;;;;;;;;;;14.58;65.96;100775.18;1653364;85;20141;-87
2021/06/13 12:40:42;;;;;;;;;;;;;;;14.56;67.04;100765.16;1652983;86;20558;-85
2021/06/13 12:43:09;;;;;;;;;;;;;;;14.56;65.84;100774.94;1658069;85;20126;-83
2021/06/13 12:45:36;;;;;;;;;;;;;;;14.56;66.31;100773.13;1652690;86;20300;-85
2021/06/13 12:48:06;;;;;;;;;;;;;;;14.56;65.48;100778.92;1653452;85;20182;-84
2021/06/13 12:50:34;;;;;;;;;;;;;;;14.57;65.59;100780.59;1660826;85;20140;-84